Time;durP1;ratioP1;P1;durP2;ratioP2;P2;SDS_P1;SDS_P2;PMS_P1;PMS_P2;Temp;Humidity;BMP_temperature;BMP_pressure;BME280_temperature;BME280_humidity;BME280_pressure;Samples;Min_cycle;Max_cycle;Signal;HPM_P1;HPM_P2
2023/10/09 00:03:00;;;;;;;1.70;1.53;;;;;;;2.46;100.00;100285.53;4932870;28;20271;-66
2023/10/09 00:08:18;;;;;;;2.03;1.83;;;;;;;2.65;100.00;100316.47;4954306;29;20314;-66
2023/10/09 00:10:53;;;;;;;3.30;1.80;;;;;;;2.64;100.00;100311.31;4955387;28;20278;-66
2023/10/09 00:13:23;;;;;;;2.13;1.60;;;;;;;2.64;100.00;100324.47;4955377;28;20781;-67
2023/10/09 00:15:53;;;;;;;3.10;1.80;;;;;;;2.53;100.00;100306.91;4953829;29;20302;-66
2023/10/09 00:18:28;;;;;;;1.83;1.70;;;;;;;2.45;100.00;100304.06;4955457;28;20342;-66
2023/10/09 00:20:55;;;;;;;2.40;1.70;;;;;;;2.61;100.00;100327.34;4955444;28;20279;-67
2023/10/09 00:23:25;;;;;;;2.40;1.87;;;;;;;2.50;100.00;100315.03;4955200;28;20286;-66
2023/10/09 00:28:47;;;;;;;1.97;1.60;;;;;;;2.47;100.00;100313.50;4955073;29;20270;-66
2023/10/09 00:31:15;;;;;;;2.23;1.60;;;;;;;2.54;100.00;100332.22;4953922;29;20313;-66
2023/10/09 00:33:44;;;;;;;2.03;1.83;;;;;;;2.52;100.00;100314.91;4954889;28;20266;-65
2023/10/09 00:36:11;;;;;;;1.92;1.70;;;;;;;2.51;100.00;100324.59;4953680;29;20035;-66
2023/10/09 00:38:45;;;;;;;1.77;1.67;;;;;;;2.46;100.00;100327.59;4954811;28;20082;-67
2023/10/09 00:41:11;;;;;;;1.93;1.60;;;;;;;2.20;100.00;100272.78;4954757;28;20789;-66
2023/10/09 00:43:38;;;;;;;2.70;1.87;;;;;;;2.29;100.00;100303.59;4955038;28;20326;-66
2023/10/09 00:46:25;;;;;;;2.07;1.70;;;;;;;2.50;100.00;100346.59;4954898;28;20314;-66
2023/10/09 00:48:58;;;;;;;1.97;1.63;;;;;;;2.34;100.00;100322.47;4954972;28;20265;-66
2023/10/09 00:51:24;;;;;;;3.30;1.80;;;;;;;2.44;100.00;100342.66;4955093;28;20270;-66
2023/10/09 00:53:53;;;;;;;6.17;1.90;;;;;;;2.38;100.00;100335.25;4954986;28;20274;-67
2023/10/09 00:59:08;;;;;;;1.80;1.70;;;;;;;2.39;100.00;100336.09;4953796;29;19926;-65
2023/10/09 01:01:36;;;;;;;2.37;1.57;;;;;;;2.20;100.00;100309.56;4953490;29;20278;-67
2023/10/09 01:04:14;;;;;;;2.63;1.98;;;;;;;2.40;100.00;100349.09;4954756;28;20336;-65
2023/10/09 01:07:04;;;;;;;1.95;1.70;;;;;;;2.26;100.00;100330.94;4954736;28;20118;-66
2023/10/09 01:09:36;;;;;;;1.80;1.70;;;;;;;2.38;100.00;100351.03;4953295;29;20047;-64
2023/10/09 01:14:27;;;;;;;2.90;1.73;;;;;;;2.34;100.00;100348.75;4953956;28;20298;-66
2023/10/09 01:16:54;;;;;;;1.80;1.70;;;;;;;2.37;100.00;100353.78;4954233;28;20079;-67
2023/10/09 01:19:30;;;;;;;1.83;1.53;;;;;;;2.34;100.00;100365.38;4954201;28;20042;-67
2023/10/09 01:22:15;;;;;;;2.27;1.77;;;;;;;2.35;100.00;100355.69;4954186;28;20333;-64
2023/10/09 01:24:43;;;;;;;2.37;2.00;;;;;;;2.31;100.00;100349.81;4936851;29;20413;-66
2023/10/09 01:27:15;;;;;;;2.53;2.33;;;;;;;2.06;100.00;100314.13;4954193;28;20275;-66
2023/10/09 01:29:43;;;;;;;1.90;1.67;;;;;;;2.39;100.00;100370.25;4954201;28;20270;-67
2023/10/09 01:32:21;;;;;;;2.50;2.00;;;;;;;2.34;100.00;100354.84;4954483;29;20305;-68
2023/10/09 01:34:50;;;;;;;2.33;2.13;;;;;;;2.30;100.00;100355.19;4952878;29;20294;-64
2023/10/09 01:37:23;;;;;;;2.22;2.03;;;;;;;2.40;100.00;100375.38;4953181;29;20282;-66
2023/10/09 01:39:51;;;;;;;2.00;1.80;;;;;;;2.27;100.00;100371.19;4954754;28;20062;-66
2023/10/09 01:42:34;;;;;;;1.70;1.60;;;;;;;1.98;100.00;100303.34;4937140;29;20295;-65
2023/10/09 01:45:26;;;;;;;2.37;2.10;;;;;;;2.33;100.00;100371.56;4953757;28;20470;-66
2023/10/09 01:47:54;;;;;;;1.80;1.70;;;;;;;2.35;100.00;100361.78;4953860;28;20270;-67
2023/10/09 01:50:30;;;;;;;2.53;2.00;;;;;;;2.38;100.00;100386.97;4954274;28;20275;-64
2023/10/09 01:52:56;;;;;;;1.63;1.50;;;;;;;2.38;100.00;100372.03;4955353;28;20362;-66
2023/10/09 01:55:29;;;;;;;2.57;1.70;;;;;;;2.28;100.00;100378.13;4955230;28;20446;-66
2023/10/09 01:57:57;;;;;;;1.97;1.77;;;;;;;2.39;100.00;100378.97;4955345;28;20109;-66
2023/10/09 02:00:27;;;;;;;1.67;1.58;;;;;;;2.31;100.00;100367.38;4954448;28;20270;-65
2023/10/09 02:02:53;;;;;;;2.70;1.67;;;;;;;2.38;100.00;100387.81;4953326;29;20039;-65
2023/10/09 02:07:51;;;;;;;1.70;1.60;;;;;;;2.33;100.00;100383.88;4960521;28;20039;-65
2023/10/09 02:10:48;;;;;;;1.80;1.67;;;;;;;2.38;100.00;100384.34;4958188;28;20114;-65
2023/10/09 02:13:09;;;;;;;1.70;1.60;;;;;;;2.39;100.00;100381.59;4956414;29;20318;-68
2023/10/09 02:15:51;;;;;;;4.20;2.00;;;;;;;2.40;100.00;100382.44;4953669;29;20817;-65
2023/10/09 02:21:13;;;;;;;2.33;1.83;;;;;;;2.43;100.00;100390.91;4954019;28;20310;-65
2023/10/09 02:23:57;;;;;;;2.17;1.97;;;;;;;2.27;100.00;100366.78;4961248;29;20275;-66
2023/10/09 02:26:26;;;;;;;2.63;2.37;;;;;;;2.40;100.00;100400.84;4956302;28;20300;-67
2023/10/09 02:28:59;;;;;;;2.30;2.10;;;;;;;2.41;100.00;100394.63;4957226;28;20263;-69
2023/10/09 02:31:50;;;;;;;2.43;2.10;;;;;;;2.42;100.00;100383.16;4957628;28;20582;-67
2023/10/09 02:34:12;;;;;;;4.60;1.73;;;;;;;2.37;100.00;100380.88;4957038;28;20341;-67
2023/10/09 02:36:41;;;;;;;2.20;2.00;;;;;;;2.34;100.00;100373.25;4957238;28;20303;-67
2023/10/09 02:39:21;;;;;;;2.00;1.90;;;;;;;2.44;100.00;100391.75;4956890;28;20055;-68
2023/10/09 02:41:49;;;;;;;2.20;2.00;;;;;;;2.39;100.00;100378.97;4958568;28;20374;-66
2023/10/09 02:44:15;;;;;;;2.13;1.73;;;;;;;2.33;100.00;100368.13;4962669;28;20424;-66
2023/10/09 02:46:44;;;;;;;2.70;2.23;;;;;;;2.32;100.00;100367.28;4959153;28;20043;-69
2023/10/09 02:49:15;;;;;;;3.65;2.13;;;;;;;2.41;100.00;100386.75;4957407;29;20287;-68
2023/10/09 02:51:42;;;;;;;3.13;2.17;;;;;;;2.36;100.00;100373.13;4957140;28;20409;-65
2023/10/09 02:54:18;;;;;;;5.27;1.97;;;;;;;2.48;100.00;100401.06;4956718;28;20801;-64
2023/10/09 02:56:47;;;;;;;2.80;2.43;;;;;;;2.37;100.00;100374.78;4956967;28;20273;-67
2023/10/09 02:59:14;;;;;;;3.57;2.30;;;;;;;2.48;100.00;100396.66;4956767;28;20354;-67
2023/10/09 03:01:40;;;;;;;2.40;2.20;;;;;;;2.38;100.00;100393.06;4956710;28;20381;-66
2023/10/09 03:04:10;;;;;;;2.83;2.30;;;;;;;2.36;100.00;100389.72;4955603;29;20306;-66
2023/10/09 03:06:43;;;;;;;2.20;2.00;;;;;;;2.32;100.00;100380.41;4956870;28;20275;-67
2023/10/09 03:09:26;;;;;;;4.07;2.20;;;;;;;2.20;100.00;100356.88;4957693;28;20302;-66
2023/10/09 03:11:54;;;;;;;3.40;2.20;;;;;;;2.31;100.00;100370.00;4955734;29;20306;-64
2023/10/09 03:14:20;;;;;;;;;;;;;;;2.52;100.00;100399.88;4957014;28;20345;-65
2023/10/09 03:16:49;;;;;;;2.03;1.93;;;;;;;2.47;100.00;100402.03;4956596;28;19923;-64
2023/10/09 03:19:14;;;;;;;3.20;2.35;;;;;;;2.43;100.00;100398.81;4956415;28;20031;-68
2023/10/09 03:21:40;;;;;;;3.53;2.00;;;;;;;2.46;100.00;100402.97;4956485;28;20562;-65
2023/10/09 03:24:07;;;;;;;3.60;2.03;;;;;;;2.46;100.00;100403.81;4956104;28;20605;-64
2023/10/09 03:26:33;;;;;;;3.73;2.40;;;;;;;2.36;100.00;100399.41;4956328;28;20627;-66
2023/10/09 03:29:06;;;;;;;3.27;2.23;;;;;;;2.32;100.00;100390.09;4956187;28;20762;-64
2023/10/09 03:31:36;;;;;;;1.90;1.80;;;;;;;2.21;100.00;100374.31;4954903;29;20270;-66
2023/10/09 03:34:03;;;;;;;2.10;1.90;;;;;;;2.41;100.00;100419.09;4956084;28;20278;-68
2023/10/09 03:36:30;;;;;;;1.93;1.83;;;;;;;2.28;100.00;100391.25;4955342;28;20278;-66
2023/10/09 03:39:00;;;;;;;2.37;1.70;;;;;;;2.37;100.00;100416.84;4955559;28;20294;-67
2023/10/09 03:41:28;;;;;;;2.20;2.00;;;;;;;2.34;100.00;100402.16;4956440;28;20338;-65
2023/10/09 03:43:55;;;;;;;2.40;2.00;;;;;;;2.41;100.00;100413.03;4956330;29;20291;-67
2023/10/09 03:46:22;;;;;;;3.43;2.27;;;;;;;2.28;100.00;100384.22;4956298;28;20085;-69
2023/10/09 03:48:49;;;;;;;2.70;1.93;;;;;;;2.37;100.00;100412.44;4954714;29;20282;-65
2023/10/09 03:51:21;;;;;;;2.40;2.10;;;;;;;2.37;100.00;100408.97;4956231;28;20302;-68
2023/10/09 03:53:48;;;;;;;3.40;1.97;;;;;;;2.29;100.00;100424.47;4955587;28;20330;-66
2023/10/09 03:56:18;;;;;;;2.27;2.07;;;;;;;2.31;100.00;100406.78;4955611;28;20275;-66
2023/10/09 03:58:45;;;;;;;2.10;1.70;;;;;;;2.15;100.00;100394.84;4955495;28;20296;-66
2023/10/09 04:01:38;;;;;;;2.57;1.90;;;;;;;2.22;100.00;100413.59;4954524;29;20793;-68
2023/10/09 04:04:03;;;;;;;2.30;2.10;;;;;;;1.84;100.00;100340.38;4957370;28;20357;-66
2023/10/09 04:06:32;;;;;;;2.40;1.77;;;;;;;2.13;100.00;100398.53;4958183;28;20281;-66
2023/10/09 04:11:44;;;;;;;3.83;2.00;;;;;;;2.29;100.00;100414.78;4957250;28;20706;-64
2023/10/09 04:14:16;;;;;;;3.20;2.10;;;;;;;2.20;100.00;100402.38;4954302;29;20718;-67
2023/10/09 04:19:28;;;;;;;4.03;2.37;;;;;;;2.29;100.00;100416.56;4955262;29;20271;-66
2023/10/09 04:21:55;;;;;;;4.20;2.10;;;;;;;1.92;100.00;100361.59;4955433;28;20646;-67
2023/10/09 04:24:23;;;;;;;3.47;2.47;;;;;;;2.37;100.00;100440.50;4955527;28;20043;-64
2023/10/09 04:26:55;;;;;;;2.27;2.07;;;;;;;2.26;100.00;100419.44;4955370;28;20273;-67
2023/10/09 04:29:26;;;;;;;2.20;2.00;;;;;;;2.35;100.00;100424.84;4955680;28;20506;-67
2023/10/09 04:31:56;;;;;;;2.93;2.40;;;;;;;2.36;100.00;100428.31;4955044;28;20322;-68
2023/10/09 04:34:23;;;;;;;2.13;1.83;;;;;;;1.43;100.00;100275.25;4956981;28;20307;-65
2023/10/09 04:36:53;;;;;;;2.53;2.33;;;;;;;2.32;100.00;100419.00;4956453;28;20741;-66
2023/10/09 04:47:36;;;;;;;3.33;2.30;;;;;;;2.10;100.00;100402.25;4954007;28;20285;-67
2023/10/09 05:00:35;;;;;;;2.73;2.47;;;;;;;2.40;100.00;100443.72;4936165;29;20275;-65
2023/10/09 05:03:12;;;;;;;2.20;2.00;;;;;;;2.31;100.00;100426.00;4935738;29;20272;-66
2023/10/09 05:16:08;;;;;;;3.10;2.80;;;;;;;2.53;100.00;100443.59;4935106;29;20302;-65
2023/10/09 05:18:37;;;;;;;3.53;2.90;;;;;;;2.52;100.00;100441.09;4936044;29;20310;-65
2023/10/09 05:23:48;;;;;;;2.40;2.10;;;;;;;2.37;100.00;100425.56;4941552;29;20042;-65
2023/10/09 05:26:41;;;;;;;2.67;2.20;;;;;;;2.41;100.00;100434.88;4941908;29;20814;-66
2023/10/09 05:37:32;;;;;;;3.40;1.90;;;;;;;2.61;100.00;100445.66;4954002;28;20282;-66
2023/10/09 05:48:05;;;;;;;4.40;2.83;;;;;;;2.47;100.00;100447.53;4955169;29;20317;-68
2023/10/09 05:50:34;;;;;;;;;;;;;;;2.50;100.00;100464.88;4954343;28;20275;-67
2023/10/09 05:54:11;;;;;;;3.30;2.50;;;;;;;2.26;100.00;100432.59;4953921;28;19969;-67
2023/10/09 06:04:15;;;;;;;2.90;2.47;;;;;;;2.26;100.00;100470.19;4954215;29;20670;-67
2023/10/09 06:06:45;;;;;;;2.50;2.30;;;;;;;2.20;100.00;100461.94;4953912;28;20330;-67
2023/10/09 06:11:49;;;;;;;2.40;2.20;;;;;;;2.19;100.00;100466.38;4953609;28;20278;-68
2023/10/09 06:14:25;;;;;;;3.07;2.53;;;;;;;2.17;100.00;100469.13;4952377;29;20305;-69
2023/10/09 06:19:28;;;;;;;2.73;2.43;;;;;;;1.98;100.00;100447.81;4953853;28;20275;-70
2023/10/09 06:24:41;;;;;;;2.40;2.20;;;;;;;2.07;100.00;100447.13;4953603;28;20283;-66
2023/10/09 06:34:46;;;;;;;2.60;2.40;;;;;;;2.19;100.00;100482.13;4953492;28;20506;-71
2023/10/09 06:45:14;;;;;;;3.07;2.77;;;;;;;2.24;100.00;100476.53;4953198;28;20843;-67
2023/10/09 06:47:41;;;;;;;3.13;2.83;;;;;;;2.28;100.00;100473.56;4953457;28;20278;-69
2023/10/09 06:55:48;;;;;;;3.70;2.37;;;;;;;2.31;100.00;100480.34;4953198;29;20801;-68
2023/10/09 06:58:28;;;;;;;5.50;2.53;;;;;;;2.05;100.00;100446.41;4953855;28;20278;-67
2023/10/09 07:03:32;;;;;;;3.00;2.77;;;;;;;2.48;100.00;100483.38;4953853;28;20289;-72
2023/10/09 07:06:09;;;;;;;3.33;2.80;;;;;;;2.71;100.00;100496.56;4956059;28;20762;-69
2023/10/09 07:08:44;;;;;;;6.20;2.83;;;;;;;2.86;100.00;100487.47;4952558;29;20278;-68
2023/10/09 07:11:56;;;;;;;2.73;2.50;;;;;;;2.82;100.00;100453.63;4953079;28;20271;-69
2023/10/09 07:17:21;;;;;;;6.40;3.60;;;;;;;3.32;100.00;100486.47;4957105;28;20774;-70
2023/10/09 07:24:56;;;;;;;2.90;2.60;;;;;;;3.48;100.00;100472.94;4956272;28;20275;-69
2023/10/09 07:27:43;;;;;;;10.63;3.90;;;;;;;3.70;100.00;100494.72;4956394;28;20301;-68
2023/10/09 07:35:46;;;;;;;5.07;2.77;;;;;;;3.99;99.07;100509.94;4956176;28;20070;-69
2023/10/09 07:38:21;;;;;;;3.00;2.43;;;;;;;3.92;99.08;100493.81;4956474;28;20299;-68
2023/10/09 07:46:32;;;;;;;3.33;2.30;;;;;;;3.95;96.40;100508.53;4956452;28;20282;-68
2023/10/09 07:49:08;;;;;;;2.53;2.33;;;;;;;3.76;96.15;100501.31;4962593;28;20077;-70
2023/10/09 07:51:43;;;;;;;2.40;2.20;;;;;;;3.80;96.53;100510.66;4958388;28;20086;-68
2023/10/09 07:54:14;;;;;;;4.00;2.10;;;;;;;3.76;95.99;100514.50;4958255;28;20271;-66
2023/10/09 07:56:45;;;;;;;4.50;2.30;;;;;;;3.82;96.47;100521.88;4957803;28;20275;-70
2023/10/09 07:59:13;;;;;;;4.13;2.27;;;;;;;3.92;96.98;100514.91;4955831;28;20286;-67
2023/10/09 08:01:54;;;;;;;5.83;2.80;;;;;;;3.98;95.38;100511.75;4955121;29;20275;-69
2023/10/09 08:07:34;;;;;;;3.20;2.40;;;;;;;4.03;94.63;100520.09;4915402;29;20276;-67
2023/10/09 08:23:28;;;;;;;2.87;2.00;;;;;;;4.53;90.23;100545.88;4960979;28;20271;-68
2023/10/09 08:26:12;;;;;;;2.03;1.87;;;;;;;4.47;90.98;100536.69;4960496;28;20322;-68
2023/10/09 08:28:45;;;;;;;2.10;1.90;;;;;;;4.32;90.80;100506.31;4958468;28;20770;-67
2023/10/09 08:31:19;;;;;;;3.53;2.03;;;;;;;4.52;90.57;100545.03;4960712;28;20262;-69
2023/10/09 08:33:56;;;;;;;2.57;2.10;;;;;;;4.38;90.36;100547.16;4962487;28;20330;-69
2023/10/09 08:36:28;;;;;;;2.90;2.40;;;;;;;4.41;91.40;100549.53;4962726;28;20310;-66
2023/10/09 08:38:58;;;;;;;2.50;2.30;;;;;;;4.48;91.36;100546.25;4960394;28;20271;-68
2023/10/09 08:41:29;;;;;;;3.00;2.40;;;;;;;4.32;91.59;100522.13;4959963;28;20295;-68
2023/10/09 08:43:57;;;;;;;2.77;2.20;;;;;;;4.55;91.91;100546.56;4954933;28;20282;-69
2023/10/09 08:46:28;;;;;;;3.63;2.50;;;;;;;4.22;90.86;100494.88;4954671;28;20773;-72
2023/10/09 08:48:56;;;;;;;2.67;2.47;;;;;;;4.55;90.88;100528.09;4955113;28;20337;-64
2023/10/09 08:51:25;;;;;;;5.00;2.80;;;;;;;4.69;90.78;100543.63;4954732;28;20639;-69
2023/10/09 08:53:52;;;;;;;5.17;2.60;;;;;;;4.45;90.06;100499.06;4955062;28;20271;-69
2023/10/09 08:56:22;;;;;;;2.30;2.10;;;;;;;4.77;90.18;100545.59;4957962;28;20861;-67
2023/10/09 08:58:59;;;;;;;3.87;2.50;;;;;;;4.69;89.12;100545.41;4962670;28;20330;-67
2023/10/09 09:01:25;;;;;;;2.87;2.00;;;;;;;4.52;87.22;100531.00;4953752;29;20279;-70
2023/10/09 09:03:56;;;;;;;2.43;2.10;;;;;;;4.56;89.03;100535.88;4954811;28;20278;-72
2023/10/09 09:06:23;;;;;;;2.80;2.53;;;;;;;4.76;89.49;100557.13;4954797;28;20302;-68
2023/10/09 09:08:54;;;;;;;2.90;2.57;;;;;;;4.81;89.08;100554.91;4953017;29;20302;-72
2023/10/09 09:11:24;;;;;;;3.50;2.60;;;;;;;4.78;89.62;100550.75;4954168;28;20337;-70
2023/10/09 09:13:58;;;;;;;2.70;2.50;;;;;;;4.78;90.07;100536.72;4954567;28;20357;-68
2023/10/09 09:16:31;;;;;;;2.30;2.10;;;;;;;4.86;89.64;100552.72;4953167;29;20301;-70
2023/10/09 09:19:17;;;;;;;4.07;2.43;;;;;;;4.72;89.37;100551.28;4954489;28;20267;-67
2023/10/09 09:21:49;;;;;;;2.57;2.37;;;;;;;4.88;88.68;100577.16;4958887;28;20380;-68
2023/10/09 09:27:00;;;;;;;2.80;2.53;;;;;;;4.68;85.98;100551.66;4957724;28;20282;-69
2023/10/09 09:29:37;;;;;;;6.37;2.80;;;;;;;4.93;87.15;100570.56;4959379;28;20271;-67
2023/10/09 09:32:16;;;;;;;2.40;2.20;;;;;;;4.96;85.62;100572.09;4959288;29;20334;-67
2023/10/09 09:35:04;;;;;;;5.53;2.70;;;;;;;4.98;85.04;100575.44;4961244;28;20326;-66
2023/10/09 09:40:28;;;;;;;3.50;2.77;;;;;;;4.88;85.01;100571.91;4953453;29;20779;-70
2023/10/09 09:43:04;;;;;;;2.27;2.00;;;;;;;4.79;85.86;100559.50;4956313;28;20290;-68
2023/10/09 09:45:48;;;;;;;3.57;2.73;;;;;;;4.89;86.33;100582.31;4955812;28;20279;-72
2023/10/09 09:48:16;;;;;;;5.07;2.80;;;;;;;4.78;86.68;100555.19;4954139;28;20305;-67
2023/10/09 09:50:47;;;;;;;3.10;2.75;;;;;;;5.01;86.61;100575.19;4956408;28;20374;-65
2023/10/09 09:53:16;;;;;;;3.50;2.70;;;;;;;4.93;86.43;100545.97;4962750;28;20051;-68
2023/10/09 09:55:57;;;;;;;2.30;2.10;;;;;;;5.06;85.97;100586.16;4961210;29;20301;-70
2023/10/09 09:58:26;;;;;;;5.87;4.23;;;;;;;5.00;85.37;100591.16;4964291;28;20289;-67
2023/10/09 10:00:57;;;;;;;5.40;3.95;;;;;;;4.98;85.36;100583.34;4954938;29;20674;-68
2023/10/09 10:03:43;;;;;;;11.37;6.17;;;;;;;4.88;85.51;100563.97;4953860;28;20510;-69
2023/10/09 10:06:12;;;;;;;14.00;8.63;;;;;;;4.88;85.77;100582.44;4952742;29;20275;-69
2023/10/09 10:08:39;;;;;;;7.28;3.63;;;;;;;4.79;86.33;100570.03;4953658;28;20279;-69
2023/10/09 10:11:51;;;;;;;2.83;2.50;;;;;;;4.88;84.75;100578.00;4953987;28;20039;-68
2023/10/09 10:14:52;;;;;;;3.40;2.30;;;;;;;4.49;84.42;100500.47;4961724;28;20274;-67
2023/10/09 10:17:21;;;;;;;7.50;2.70;;;;;;;5.13;84.53;100582.03;4959028;29;20271;-68
2023/10/09 10:22:51;;;;;;;3.20;2.63;;;;;;;5.15;83.78;100568.69;4958338;28;20282;-69
2023/10/09 10:25:32;;;;;;;3.33;2.70;;;;;;;5.14;82.55;100585.50;4953743;28;20286;-71
2023/10/09 10:28:42;;;;;;;3.10;2.60;;;;;;;4.91;84.02;100583.03;4952536;29;20271;-68
2023/10/09 10:31:13;;;;;;;2.20;2.00;;;;;;;4.75;84.78;100581.81;4953965;28;20313;-68
2023/10/09 10:33:58;;;;;;;3.73;3.27;;;;;;;4.88;84.95;100582.44;4953906;28;20580;-69
2023/10/09 10:36:28;;;;;;;3.87;3.30;;;;;;;4.94;85.20;100571.41;4952271;29;20299;-68
2023/10/09 10:39:08;;;;;;;3.10;2.90;;;;;;;5.04;83.40;100588.09;4953506;28;20549;-68
2023/10/09 10:41:50;;;;;;;2.60;2.30;;;;;;;4.93;82.55;100575.84;4953563;28;20346;-70
2023/10/09 10:44:33;;;;;;;3.13;2.83;;;;;;;4.93;82.96;100575.00;4952422;29;20375;-70
2023/10/09 10:46:59;;;;;;;2.20;2.00;;;;;;;4.83;83.38;100564.38;4955962;28;20369;-69
2023/10/09 10:49:36;;;;;;;5.80;3.40;;;;;;;4.88;84.67;100582.44;4957118;28;20358;-67
2023/10/09 10:52:18;;;;;;;3.73;2.87;;;;;;;4.88;83.79;100567.44;4957303;28;20030;-73
2023/10/09 10:57:29;;;;;;;3.00;2.80;;;;;;;4.98;83.20;100573.63;4956431;29;20327;-65
2023/10/09 11:02:48;;;;;;;2.90;2.53;;;;;;;4.78;84.92;100565.75;4934870;28;20279;-67
2023/10/09 11:05:14;;;;;;;3.10;2.87;;;;;;;4.75;86.03;100580.03;4956869;28;20267;-68
2023/10/09 11:07:40;;;;;;;3.00;2.70;;;;;;;4.77;86.26;100590.44;4957056;28;20041;-70
2023/10/09 11:10:26;;;;;;;3.10;2.80;;;;;;;4.64;87.04;100564.28;4956948;28;20558;-69
2023/10/09 11:18:25;;;;;;;3.17;2.87;;;;;;;4.71;85.23;100575.16;4963119;28;20122;-68
2023/10/09 11:21:40;;;;;;;3.87;3.57;;;;;;;4.78;85.05;100598.22;4958079;28;20275;-68
2023/10/09 11:26:26;;;;;;;3.20;2.90;;;;;;;4.78;84.78;100589.47;4957677;28;20031;-69
2023/10/09 11:29:23;;;;;;;3.67;2.43;;;;;;;4.64;84.35;100559.84;4955835;29;20690;-68
2023/10/09 11:32:05;;;;;;;3.23;2.50;;;;;;;3.85;84.81;100442.59;4971152;28;20267;-65
2023/10/09 11:34:34;;;;;;;4.87;2.73;;;;;;;4.58;84.61;100578.78;4971393;28;20634;-68
2023/10/09 11:37:15;;;;;;;2.90;2.60;;;;;;;4.56;85.84;100604.47;4956174;28;20808;-68
2023/10/09 11:39:53;;;;;;;2.63;2.43;;;;;;;4.52;86.01;100608.31;4955374;29;20733;-69
2023/10/09 11:45:28;;;;;;;4.73;3.03;;;;;;;3.80;85.21;100463.22;4958616;28;20286;-67
2023/10/09 11:47:57;;;;;;;3.37;3.03;;;;;;;4.65;86.25;100605.53;4956239;28;20282;-71
2023/10/09 11:51:18;;;;;;;6.30;3.57;;;;;;;4.66;87.09;100609.81;4956319;28;20290;-68
2023/10/09 11:54:00;;;;;;;7.03;4.13;;;;;;;4.69;87.26;100614.84;4955809;29;20270;-69
2023/10/09 11:56:28;;;;;;;4.67;3.13;;;;;;;4.53;85.48;100599.44;4956195;28;20330;-70
2023/10/09 11:58:58;;;;;;;8.20;4.55;;;;;;;4.60;85.67;100611.16;4954546;28;20282;-68
2023/10/09 12:01:25;;;;;;;7.07;4.40;;;;;;;4.62;85.60;100603.94;4956178;28;20039;-70
2023/10/09 12:03:51;;;;;;;7.33;3.63;;;;;;;4.61;84.68;100606.72;4956093;28;20769;-72
2023/10/09 12:06:22;;;;;;;5.37;3.83;;;;;;;4.61;85.71;100617.25;4955315;29;20302;-66
2023/10/09 12:08:48;;;;;;;5.97;4.07;;;;;;;4.65;86.26;100614.28;4956726;28;20306;-67
2023/10/09 12:11:28;;;;;;;5.53;4.03;;;;;;;4.59;86.09;100588.38;4955570;28;20275;-66
2023/10/09 12:14:00;;;;;;;7.83;4.93;;;;;;;4.58;85.29;100589.34;4954935;29;20267;-66
2023/10/09 12:16:28;;;;;;;4.57;3.67;;;;;;;4.63;85.33;100610.09;4955320;28;20325;-67
2023/10/09 12:18:54;;;;;;;9.23;4.53;;;;;;;4.62;86.97;100614.50;4955169;28;20781;-67
2023/10/09 12:21:21;;;;;;;5.43;4.03;;;;;;;4.66;87.19;100615.09;4955356;28;20043;-69
2023/10/09 12:23:47;;;;;;;4.00;3.13;;;;;;;4.64;85.48;100607.31;4955391;28;20275;-66
2023/10/09 12:26:16;;;;;;;4.97;3.53;;;;;;;4.58;86.13;100613.09;4955337;28;20274;-67
2023/10/09 12:28:49;;;;;;;4.63;3.70;;;;;;;4.52;86.11;100618.88;4955183;29;20271;-68
2023/10/09 12:31:19;;;;;;;4.03;3.37;;;;;;;4.19;85.39;100605.84;4938737;29;20311;-67
2023/10/09 12:33:46;;;;;;;3.57;3.13;;;;;;;4.13;86.84;100585.25;4954063;29;20358;-66
2023/10/09 12:36:22;;;;;;;3.47;3.10;;;;;;;4.24;86.17;100624.75;4955128;28;20294;-68
2023/10/09 12:38:58;;;;;;;6.70;3.00;;;;;;;4.23;87.20;100596.72;4954826;28;20270;-66
2023/10/09 12:41:28;;;;;;;5.23;3.60;;;;;;;4.45;86.51;100607.16;4955009;28;20282;-68
2023/10/09 12:43:54;;;;;;;4.50;3.63;;;;;;;4.57;85.57;100626.41;4954642;28;20287;-66
2023/10/09 12:46:25;;;;;;;5.17;3.77;;;;;;;4.42;86.17;100601.31;4954697;28;20271;-68
2023/10/09 12:48:54;;;;;;;4.57;3.57;;;;;;;4.51;85.08;100627.75;4954795;28;20266;-68
2023/10/09 12:51:25;;;;;;;6.53;3.63;;;;;;;4.33;86.05;100608.16;4954901;28;20270;-66
2023/10/09 12:53:58;;;;;;;4.80;3.90;;;;;;;4.02;85.51;100588.75;4954655;28;20107;-66
2023/10/09 12:56:32;;;;;;;3.10;2.80;;;;;;;3.99;85.12;100620.63;4953786;28;20306;-66
2023/10/09 12:59:04;;;;;;;4.80;2.80;;;;;;;3.83;85.94;100626.31;4953510;29;20302;-66
2023/10/09 13:01:42;;;;;;;5.83;2.67;;;;;;;3.62;84.93;100606.94;4954757;28;20623;-67
2023/10/09 13:04:12;;;;;;;5.43;2.60;;;;;;;3.60;85.25;100603.59;4954842;28;20802;-67
2023/10/09 13:06:43;;;;;;;2.70;2.40;;;;;;;3.73;83.77;100617.44;4954388;28;20789;-68
2023/10/09 13:09:35;;;;;;;5.43;2.87;;;;;;;3.59;83.52;100580.84;4954407;28;20358;-65
2023/10/09 13:12:01;;;;;;;2.67;2.47;;;;;;;3.77;83.64;100624.16;4954407;28;20383;-67
2023/10/09 13:14:35;;;;;;;3.27;2.27;;;;;;;3.64;84.23;100597.09;4953134;29;20393;-67
2023/10/09 13:17:10;;;;;;;3.93;2.80;;;;;;;3.86;84.39;100626.06;4954059;28;20309;-70
2023/10/09 13:19:36;;;;;;;3.90;2.53;;;;;;;3.70;84.44;100599.25;4954504;28;20334;-66
2023/10/09 13:22:03;;;;;;;4.60;2.93;;;;;;;3.95;84.85;100637.63;4954479;28;20271;-67
2023/10/09 13:24:30;;;;;;;4.13;3.72;;;;;;;3.71;84.20;100604.38;4952954;29;20428;-67
2023/10/09 13:26:58;;;;;;;3.83;3.17;;;;;;;3.67;84.44;100599.50;4952919;29;20051;-65
2023/10/09 13:29:24;;;;;;;4.37;3.30;;;;;;;3.77;83.40;100613.63;4953820;28;20680;-66
2023/10/09 13:31:57;;;;;;;3.87;3.27;;;;;;;3.80;84.34;100610.75;4953793;28;20290;-67
2023/10/09 13:34:27;;;;;;;4.93;3.03;;;;;;;3.84;84.51;100625.34;4954018;28;20271;-67
2023/10/09 13:36:58;;;;;;;3.97;3.57;;;;;;;3.89;85.57;100631.06;4954884;28;20418;-66
2023/10/09 13:39:27;;;;;;;3.60;3.30;;;;;;;3.91;85.52;100639.69;4953959;28;20864;-67
2023/10/09 13:42:06;;;;;;;5.33;2.70;;;;;;;3.95;84.63;100643.75;4954317;28;20298;-69
2023/10/09 13:44:37;;;;;;;4.90;2.70;;;;;;;3.72;84.47;100615.75;4952956;29;20267;-66
2023/10/09 13:47:09;;;;;;;3.07;2.47;;;;;;;3.77;83.07;100621.53;4954103;28;20271;-66
2023/10/09 13:49:37;;;;;;;4.70;3.73;;;;;;;2.57;82.54;100431.88;4952857;29;20271;-68
2023/10/09 13:52:07;;;;;;;5.65;3.30;;;;;;;3.66;83.17;100632.06;4952613;29;20263;-67
2023/10/09 13:57:06;;;;;;;4.63;3.00;;;;;;;3.66;83.65;100639.97;4952960;29;20279;-66
2023/10/09 13:59:35;;;;;;;3.10;2.70;;;;;;;3.74;84.51;100659.44;4954289;28;20541;-67
2023/10/09 14:02:02;;;;;;;3.40;3.03;;;;;;;3.54;84.30;100630.41;4953387;28;20271;-67
2023/10/09 14:04:28;;;;;;;3.47;3.13;;;;;;;3.64;83.92;100652.41;4952791;29;20051;-66
2023/10/09 14:06:58;;;;;;;6.47;3.20;;;;;;;3.65;84.61;100646.19;4955625;28;20274;-69
2023/10/09 14:12:29;;;;;;;3.43;3.13;;;;;;;3.47;84.77;100623.91;4896243;29;20277;-65
2023/10/09 14:14:56;;;;;;;6.17;3.70;;;;;;;3.48;84.88;100657.22;4946843;28;20801;-68
2023/10/09 14:17:27;;;;;;;3.30;3.00;;;;;;;3.26;85.93;100650.97;4969041;28;20651;-67
2023/10/09 14:20:00;;;;;;;7.20;4.13;;;;;;;3.10;86.60;100656.56;4959408;28;20829;-66
2023/10/09 14:22:29;;;;;;;3.80;2.90;;;;;;;3.00;86.16;100654.75;4963718;28;20373;-68
2023/10/09 14:24:56;;;;;;;9.70;4.07;;;;;;;2.96;86.73;100664.69;4958796;28;20275;-67
2023/10/09 14:27:35;;;;;;;6.37;3.20;;;;;;;2.93;87.43;100664.94;4957376;28;20274;-67
2023/10/09 14:30:00;;;;;;;5.95;3.38;;;;;;;2.69;88.13;100638.66;4957340;28;20294;-67
2023/10/09 14:32:34;;;;;;;6.43;3.70;;;;;;;2.73;88.41;100662.94;4957467;28;20495;-65
2023/10/09 14:35:12;;;;;;;5.77;2.90;;;;;;;2.60;88.27;100655.16;4958507;28;20514;-67
2023/10/09 14:37:41;;;;;;;3.40;2.85;;;;;;;2.62;89.30;100657.66;4958318;28;20279;-67
2023/10/09 14:40:20;;;;;;;9.07;3.75;;;;;;;2.62;90.36;100671.66;4957700;28;20063;-69
2023/10/09 14:42:46;;;;;;;5.45;3.58;;;;;;;2.71;90.89;100691.97;4961080;28;20065;-67
2023/10/09 14:45:18;;;;;;;3.90;3.53;;;;;;;2.43;90.63;100653.75;4957905;29;20043;-66
2023/10/09 14:47:46;;;;;;;3.67;3.30;;;;;;;2.48;91.22;100671.81;4958995;29;20499;-67
2023/10/09 14:50:13;;;;;;;5.35;3.97;;;;;;;2.56;92.04;100690.47;4957548;28;20777;-66
2023/10/09 14:52:40;;;;;;;6.97;4.90;;;;;;;2.52;92.60;100693.44;4957190;28;20054;-67